SU1232 / RA-89114 7700 Squawk Report (5th of May, 2020)

Aircraft SU95 Reg No. RA-89114 Age 2 years old
Model SSJ-100 Jet engines 2 First flight 25-04-18
Registered 17-08-18 Rollout 03-18 Delivered 17-08-18
Construction No. 95162 Line No. 162 Series 95B
ADSHEX 155C1A Airline name Aeroflot Russian Airlines Owner N/A
Airfield based Moscow-Sheremetyevo~Moscow~RA First tracked N/A

Flight history for RA-89114

Route Flight No Date Playback
Rostov-on-Don (ROV) - Sheremetyevo (SVO) SU1157 2020-07-09 14:56:00
Sheremetyevo (SVO) - Rostov-on-Don (ROV) SU1156 2020-07-09 13:26:00
???? N/A 2020-07-05 08:20:00
Balandino (CEK) - Sheremetyevo (SVO) SU1421 2020-06-08 14:38:00
Sheremetyevo (SVO) - Balandino (CEK) SU1420 2020-06-08 11:21:00
Magas (IGT) - Sheremetyevo (SVO) SU1079 2020-06-05 17:58:00
Sheremetyevo (SVO) - Magas (IGT) SU1078 2020-06-05 13:52:00
Orenburg (REN) - Sheremetyevo (SVO) SU1247 2020-06-05 08:50:00
Sheremetyevo (SVO) - Orenburg (REN) SU1246 2020-06-05 07:03:00
Khrabrovo (KGD) - Sheremetyevo (SVO) SU1007 2020-06-05 03:22:00
Sheremetyevo (SVO) - Khrabrovo (KGD) SU1006 2020-06-04 18:31:00
Pashkovskiy (KRR) - Sheremetyevo (SVO) SU1101 2020-06-04 11:47:00
Sheremetyevo (SVO) - Pashkovskiy (KRR) SU1100 2020-06-04 08:32:00
GSV - Sheremetyevo (SVO) SU1363 2020-06-03 18:09:00
Sheremetyevo (SVO) - GSV SU1362 2020-06-03 16:35:00
Ulyanovsk Baratayevka Airport (ULV) - Sheremetyevo (SVO) SU1287 2020-06-03 13:50:00
Sheremetyevo (SVO) - Ulyanovsk Baratayevka Airport (ULV) SU1286 2020-06-03 10:03:00
Gumrak (VOG) - Sheremetyevo (SVO) SU1183 2020-06-02 16:45:00
Sheremetyevo (SVO) - Gumrak (VOG) SU1182 2020-06-02 13:46:00
Rostov-on-Don (ROV) - Sheremetyevo (SVO) SU1159 2020-06-02 12:04:00
Time Lat Lon Altitude Heading Speed Vertical Rate
2020-05-05 14:31:28 GMT 54.625748 55.798645 1,250 150 141 -704
2020-05-05 14:31:23 GMT 54.628490 55.795982 1,325 150 141 -704
2020-05-05 14:30:41 GMT 54.652451 55.772903 1,725 150 149 -256
2020-05-05 14:28:55 GMT 54.722622 55.664894 2,850 125 219 -1472
2020-05-05 14:28:49 GMT 54.726067 55.656654 3,000 125 219 -1408
2020-05-05 14:28:32 GMT 54.736214 55.632271 3,400 125 220 -1472
2020-05-05 14:28:28 GMT 54.739521 55.624447 3,525 125 222 -768
2020-05-05 14:28:16 GMT 54.746155 55.608433 3,650 125 230 -448
2020-05-05 14:28:02 GMT 54.755035 55.587025 3,725 125 241 -384
2020-05-05 14:27:58 GMT 54.757534 55.581081 3,750 125 243 -320
2020-05-05 14:27:24 GMT 54.780716 55.525227 4,125 125 263 -1344
2020-05-05 14:27:17 GMT 54.785793 55.513000 4,275 125 265 -1408
2020-05-05 14:27:08 GMT 54.792709 55.496387 4,500 125 268 -1408
2020-05-05 14:27:03 GMT 54.795593 55.489357 4,600 125 268 -1472
2020-05-05 14:26:54 GMT 54.802368 55.472961 4,825 125 269 -1408
2020-05-05 14:26:45 GMT 54.809647 55.455509 5,025 125 270 -1344
2020-05-05 14:26:34 GMT 54.817356 55.436844 5,275 125 273 -1600
2020-05-05 14:26:23 GMT 54.825035 55.418369 5,550 125 273 -1664
2020-05-05 14:26:14 GMT 54.832626 55.400013 5,825 125 273 -1600
2020-05-05 14:26:02 GMT 54.840351 55.381332 6,100 125 273 -1472
2020-05-05 14:25:53 GMT 54.847778 55.363338 6,350 125 275 -1408
2020-05-05 14:25:46 GMT 54.852768 55.351303 6,525 125 276 -1344
2020-05-05 14:25:42 GMT 54.855530 55.344627 6,600 125 276 -1472
2020-05-05 14:25:35 GMT 54.860882 55.331558 6,775 125 277 -1408
2020-05-05 14:25:32 GMT 54.863068 55.326233 6,825 125 278 -1344
2020-05-05 14:25:26 GMT 54.868011 55.314384 6,975 125 278 -1280
2020-05-05 14:25:22 GMT 54.870937 55.307259 7,075 125 280 -1280
2020-05-05 14:25:15 GMT 54.875839 55.295319 7,225 125 281 -1408
2020-05-05 14:25:11 GMT 54.878952 55.287727 7,325 125 281 -1344
2020-05-05 14:25:01 GMT 54.886856 55.268471 7,525 125 283 -1536
2020-05-05 14:24:55 GMT 54.891129 55.258080 7,675 125 283 -1536
2020-05-05 14:24:50 GMT 54.894516 55.249840 7,800 125 283 -1472
2020-05-05 14:24:44 GMT 54.898956 55.239014 7,950 125 282 -1600
2020-05-05 14:24:40 GMT 54.902824 55.229603 8,075 125 282 -1408
2020-05-05 14:24:35 GMT 54.906734 55.220032 8,200 125 283 -1280
2020-05-05 14:24:29 GMT 54.910583 55.210743 8,300 125 284 -1280
2020-05-05 14:24:24 GMT 54.914200 55.201855 8,400 125 284 -1344
2020-05-05 14:24:19 GMT 54.918327 55.191898 8,525 125 286 -1152
2020-05-05 14:24:14 GMT 54.922237 55.182327 8,625 125 287 -640
2020-05-05 14:24:09 GMT 54.926285 55.172451 8,675 125 290 -256
2020-05-05 14:24:03 GMT 54.930176 55.162998 8,700 125 294 -576
2020-05-05 14:23:58 GMT 54.934433 55.152451 8,775 125 297 -1344
2020-05-05 14:23:53 GMT 54.938438 55.142712 8,875 125 298 -1536
2020-05-05 14:23:47 GMT 54.942947 55.131657 9,025 125 298 -1664
2020-05-05 14:23:43 GMT 54.946445 55.123070 9,150 125 298 -1664
2020-05-05 14:23:38 GMT 54.951096 55.111702 9,300 125 298 -1664
2020-05-05 14:23:27 GMT 54.959106 55.091991 9,575 125 297 -1728
2020-05-05 14:23:20 GMT 54.964508 55.078793 9,775 125 297 -1024
2020-05-05 14:23:17 GMT 54.967346 55.071796 9,850 125 299 -704
2020-05-05 14:23:10 GMT 54.972328 55.059566 9,900 125 302 -576
2020-05-05 14:23:07 GMT 54.975723 55.051197 9,950 125 306 -640
2020-05-05 14:23:03 GMT 54.979156 55.042877 10,000 125 308 -640
2020-05-05 14:22:55 GMT 54.984570 55.029434 10,075 125 312 -576
2020-05-05 14:22:51 GMT 54.988247 55.020447 10,100 125 315 -576
2020-05-05 14:22:45 GMT 54.993073 55.008625 10,175 125 320 -704
2020-05-05 14:22:36 GMT 55.001907 54.986816 10,325 125 325 -1664
2020-05-05 14:22:25 GMT 55.010834 54.964844 10,600 125 327 -1664
2020-05-05 14:22:15 GMT 55.019855 54.942627 10,900 125 329 -1664
2020-05-05 14:22:05 GMT 55.029491 54.918823 11,200 125 330 -1664
2020-05-05 14:21:54 GMT 55.038345 54.897064 11,500 125 332 -1664
2020-05-05 14:21:43 GMT 55.047321 54.874878 11,775 125 333 -1664
2020-05-05 14:21:34 GMT 55.056610 54.851910 12,075 125 335 -1664
2020-05-05 14:21:23 GMT 55.065617 54.829685 12,350 125 337 -1664
2020-05-05 14:21:13 GMT 55.075207 54.806129 12,650 125 339 -1664
2020-05-05 14:21:10 GMT 55.077488 54.800552 12,725 125 339 -1664
2020-05-05 14:21:03 GMT 55.084145 54.784073 12,925 125 340 -1664
2020-05-05 14:20:59 GMT 55.087357 54.776085 13,025 125 340 -1664
2020-05-05 14:20:52 GMT 55.093826 54.760223 13,225 125 341 -1728
2020-05-05 14:20:49 GMT 55.096298 54.754162 13,300 125 342 -1664
2020-05-05 14:20:40 GMT 55.105793 54.730808 13,600 125 344 -1728
2020-05-05 14:20:32 GMT 55.113148 54.712662 13,825 125 345 -1664
2020-05-05 14:20:29 GMT 55.114964 54.708168 13,875 125 345 -1600
2020-05-05 14:20:19 GMT 55.124134 54.685532 14,150 125 347 -1728
2020-05-05 14:20:11 GMT 55.132507 54.664982 14,400 125 348 -1600
2020-05-05 14:20:08 GMT 55.133926 54.661427 14,450 125 348 -1600
2020-05-05 14:20:01 GMT 55.141800 54.641956 14,675 125 350 -1600
2020-05-05 14:19:48 GMT 55.152786 54.614491 15,000 124 351 -1600
2020-05-05 14:19:40 GMT 55.160538 54.594727 15,200 124 353 -1600
2020-05-05 14:19:37 GMT 55.162811 54.588963 15,275 124 353 -1600
2020-05-05 14:19:30 GMT 55.170319 54.570225 15,500 125 354 -1600
2020-05-05 14:19:19 GMT 55.180973 54.544872 15,775 127 356 -1600
2020-05-05 14:19:08 GMT 55.190659 54.522984 16,025 128 357 -1536
2020-05-05 14:18:58 GMT 55.202362 54.498005 16,325 129 358 -1728
2020-05-05 14:18:48 GMT 55.212845 54.475868 16,625 129 359 -1792
2020-05-05 14:18:38 GMT 55.224243 54.451958 16,925 129 361 -1728
2020-05-05 14:18:27 GMT 55.234955 54.429340 17,225 129 362 -1792
2020-05-05 14:18:16 GMT 55.246124 54.405830 17,550 129 362 -1792
2020-05-05 14:18:07 GMT 55.257065 54.382729 17,850 129 363 -1728
2020-05-05 14:17:56 GMT 55.268261 54.359020 18,150 129 365 -1792
2020-05-05 14:17:45 GMT 55.279541 54.335148 18,450 129 365 -1728
2020-05-05 14:17:36 GMT 55.290207 54.312447 18,750 129 365 -1728
2020-05-05 14:17:25 GMT 55.301559 54.288296 19,050 129 365 -1728
2020-05-05 14:17:15 GMT 55.312672 54.264637 19,325 129 365 -1664
2020-05-05 14:17:04 GMT 55.323715 54.241199 19,625 129 367 -1728
2020-05-05 14:16:53 GMT 55.335060 54.216946 19,925 129 368 -1792
2020-05-05 14:16:44 GMT 55.346886 54.191563 20,250 129 369 -1728
2020-05-05 14:16:33 GMT 55.357361 54.169224 20,525 129 369 -1792
2020-05-05 14:16:23 GMT 55.368668 54.145069 20,850 129 369 -1792
2020-05-05 14:16:13 GMT 55.379974 54.120995 21,150 129 370 -1728
2020-05-05 14:16:02 GMT 55.390366 54.097263 21,450 123 372 -1792
2020-05-05 14:15:51 GMT 55.399429 54.069618 21,750 115 373 -1792
2020-05-05 14:15:42 GMT 55.406055 54.040249 22,075 106 376 -1856
2020-05-05 14:15:31 GMT 55.410198 54.009457 22,400 98 378 -1920
2020-05-05 14:15:20 GMT 55.412388 53.977329 22,725 96 381 -1920
2020-05-05 14:15:11 GMT 55.414352 53.946262 23,050 96 383 -1920
2020-05-05 14:14:59 GMT 55.416435 53.912327 23,400 96 386 -1920
2020-05-05 14:14:49 GMT 55.418297 53.882198 23,700 96 387 -1920
2020-05-05 14:14:40 GMT 55.420349 53.849407 24,025 96 389 -1856
2020-05-05 14:14:29 GMT 55.422394 53.815781 24,375 96 391 -1920
2020-05-05 14:14:19 GMT 55.424301 53.784317 24,675 96 392 -1856
2020-05-05 14:14:08 GMT 55.426212 53.752193 25,000 96 395 -1920
2020-05-05 14:13:58 GMT 55.428223 53.718864 25,325 96 398 -1984
2020-05-05 14:13:48 GMT 55.430237 53.685741 25,675 96 400 -2176
2020-05-05 14:13:38 GMT 55.432251 53.652058 26,050 96 401 -2176
2020-05-05 14:13:27 GMT 55.434402 53.616592 26,450 96 402 -2240
2020-05-05 14:13:17 GMT 55.436268 53.585648 26,800 96 404 -2176
2020-05-05 14:13:07 GMT 55.438408 53.551357 27,175 96 406 -2112
2020-05-05 14:12:56 GMT 55.440491 53.517391 27,550 95 408 -2176
2020-05-05 14:12:45 GMT 55.442139 53.480881 27,950 93 410 -2176
2020-05-05 14:12:36 GMT 55.442924 53.448154 28,325 91 412 -2112
2020-05-05 14:12:25 GMT 55.443016 53.413280 28,675 89 415 -2176
2020-05-05 14:12:15 GMT 55.442413 53.378490 29,050 87 416 -2176
2020-05-05 14:12:04 GMT 55.441387 53.342953 29,450 86 418 -2240
2020-05-05 14:11:54 GMT 55.440353 53.307846 29,825 87 421 -2240
2020-05-05 14:11:44 GMT 55.439293 53.272789 30,200 87 423 -2176
2020-05-05 14:11:33 GMT 55.438248 53.237484 30,575 86 425 -2176
2020-05-05 14:11:29 GMT 55.437756 53.222603 30,725 86 426 -2112
2020-05-05 14:11:22 GMT 55.437103 53.201210 30,950 86 427 -2112
2020-05-05 14:11:13 GMT 55.435989 53.164341 31,325 86 430 -2176
2020-05-05 14:11:02 GMT 55.434906 53.128994 31,700 86 433 -2176
2020-05-05 14:10:56 GMT 55.434219 53.106331 31,925 86 434 -2176
2020-05-05 14:10:52 GMT 55.433754 53.092098 32,075 86 435 -2176
2020-05-05 14:10:41 GMT 55.432590 53.054977 32,450 86 437 -2240
2020-05-05 14:10:31 GMT 55.431423 53.017357 32,850 86 437 -2176
2020-05-05 14:10:21 GMT 55.430264 52.982231 33,200 86 437 -2112
2020-05-05 14:10:10 GMT 55.429047 52.944408 33,575 86 437 -2112
2020-05-05 14:10:00 GMT 55.427902 52.908783 33,925 86 436 -2112
2020-05-05 14:09:50 GMT 55.426678 52.871872 34,300 86 436 -2112
2020-05-05 14:09:47 GMT 55.426350 52.862881 34,375 86 436 -2304
2020-05-05 14:09:39 GMT 55.425419 52.834499 34,675 86 435 -2048
2020-05-05 14:09:34 GMT 55.424721 52.813942 34,875 86 435 -1920
2020-05-05 14:09:29 GMT 55.423737 52.785107 35,000 86 436 -64
2020-05-05 14:09:19 GMT 55.423000 52.762756 35,000 86 435 0
2020-05-05 14:09:11 GMT 55.422089 52.736233 35,000 86 435 0
2020-05-05 14:09:08 GMT 55.421741 52.726219 35,000 86 435 0
2020-05-05 14:09:05 GMT 55.421463 52.717396 35,000 86 435 64
2020-05-05 14:08:55 GMT 55.420166 52.680412 35,000 86 435 0
2020-05-05 14:08:45 GMT 55.418930 52.644787 35,000 86 435 0
2020-05-05 14:08:34 GMT 55.417645 52.608032 35,000 86 434 0
2020-05-05 14:08:24 GMT 55.416248 52.568913 35,000 86 434 -64
2020-05-05 14:08:14 GMT 55.415085 52.537186 35,000 86 434 -64
2020-05-05 14:08:06 GMT 55.413940 52.505440 35,000 86 433 0
2020-05-05 14:07:54 GMT 55.412479 52.464794 35,000 86 433 0
2020-05-05 14:07:44 GMT 55.411175 52.429005 35,000 86 434 -64
2020-05-05 14:07:35 GMT 55.410057 52.399208 35,000 86 434 -64
2020-05-05 14:07:32 GMT 55.409687 52.388805 35,000 86 434 0
2020-05-05 14:07:23 GMT 55.408447 52.356396 35,000 86 435 -64
2020-05-05 14:07:15 GMT 55.407257 52.325134 35,000 86 435 -64
2020-05-05 14:07:03 GMT 55.405701 52.284016 35,000 86 436 64
2020-05-05 14:06:51 GMT 55.404236 52.245483 35,000 86 437 64
2020-05-05 14:06:42 GMT 55.402889 52.210030 35,000 86 439 -64
2020-05-05 14:06:31 GMT 55.401447 52.173073 35,000 86 439 0
2020-05-05 14:06:20 GMT 55.400002 52.135788 35,000 86 439 0
2020-05-05 14:06:11 GMT 55.398514 52.097652 35,000 86 439 64
2020-05-05 14:06:00 GMT 55.397049 52.060818 35,000 85 438 64
2020-05-05 14:05:50 GMT 55.395348 52.018848 35,000 85 438 0
2020-05-05 14:05:41 GMT 55.394302 51.992798 35,000 85 438 0
2020-05-05 14:05:37 GMT 55.393845 51.981651 35,000 85 438 -64
2020-05-05 14:05:30 GMT 55.392792 51.955879 35,000 85 438 0
2020-05-05 14:05:26 GMT 55.392334 51.944653 35,000 85 438 0
2020-05-05 14:05:20 GMT 55.391373 51.920658 35,000 85 438 64
2020-05-05 14:05:16 GMT 55.390877 51.908737 35,000 85 438 0
2020-05-05 14:05:07 GMT 55.389359 51.872108 35,000 85 438 0
2020-05-05 14:05:00 GMT 55.388367 51.848312 35,000 85 438 0
2020-05-05 14:04:56 GMT 55.387760 51.833080 35,000 85 438 0
2020-05-05 14:04:49 GMT 55.386829 51.811356 35,000 85 438 0
2020-05-05 14:04:46 GMT 55.386337 51.799488 35,000 85 438 0
2020-05-05 14:04:39 GMT 55.385292 51.774734 35,000 85 437 0
2020-05-05 14:04:36 GMT 55.384827 51.763748 35,000 85 437 0
2020-05-05 14:04:28 GMT 55.383755 51.738781 35,000 85 437 0
2020-05-05 14:04:25 GMT 55.383270 51.727104 35,000 85 437 0
2020-05-05 14:04:19 GMT 55.382217 51.702065 35,000 85 437 0
2020-05-05 14:04:14 GMT 55.381660 51.689011 35,000 85 438 64
2020-05-05 14:04:08 GMT 55.380661 51.666279 35,000 85 438 0
2020-05-05 14:04:05 GMT 55.380020 51.651737 35,000 85 438 0
2020-05-05 14:03:58 GMT 55.379105 51.630573 35,000 85 438 0
2020-05-05 14:03:54 GMT 55.378544 51.617264 35,000 85 438 0
2020-05-05 14:03:47 GMT 55.377518 51.593544 35,000 85 438 0
2020-05-05 14:03:44 GMT 55.376961 51.580894 35,000 85 438 0
2020-05-05 14:03:37 GMT 55.375946 51.557625 35,000 85 438 0
2020-05-05 14:03:33 GMT 55.375305 51.543732 35,000 85 438 0
2020-05-05 14:03:27 GMT 55.374352 51.521717 35,000 85 438 -64
2020-05-05 14:03:23 GMT 55.373749 51.508350 35,000 85 437 0
2020-05-05 14:03:17 GMT 55.372723 51.485012 35,000 85 437 -64
2020-05-05 14:03:13 GMT 55.372055 51.469898 35,025 85 437 64
2020-05-05 14:03:07 GMT 55.371094 51.448727 35,000 85 437 64
2020-05-05 14:03:03 GMT 55.370453 51.434433 35,000 85 437 -64
2020-05-05 14:02:56 GMT 55.369446 51.412220 35,000 85 437 0
2020-05-05 14:02:46 GMT 55.367836 51.376732 35,000 85 437 -64
2020-05-05 14:02:35 GMT 55.366112 51.339611 35,000 85 437 0
2020-05-05 14:02:26 GMT 55.364529 51.304321 35,000 85 437 64
2020-05-05 14:02:15 GMT 55.362808 51.267620 35,000 85 438 0
2020-05-05 14:02:05 GMT 55.361134 51.231411 35,000 85 438 -64
2020-05-05 14:01:54 GMT 55.359409 51.194206 35,000 85 437 0
2020-05-05 14:01:45 GMT 55.357689 51.157337 35,000 85 437 0
2020-05-05 14:01:34 GMT 55.356010 51.121384 35,000 85 436 -64
2020-05-05 14:01:24 GMT 55.354340 51.086586 35,000 85 436 0
2020-05-05 14:01:13 GMT 55.352612 51.049721 35,000 85 435 64
2020-05-05 14:01:04 GMT 55.350952 51.014771 35,000 85 435 0
2020-05-05 14:00:53 GMT 55.349167 50.977856 35,000 85 435 0
2020-05-05 14:00:43 GMT 55.347492 50.942688 35,000 85 435 -64
2020-05-05 14:00:33 GMT 55.345768 50.906651 35,025 85 435 64
2020-05-05 14:00:23 GMT 55.343952 50.870277 35,000 84 435 0
2020-05-05 14:00:12 GMT 55.342186 50.834408 35,000 84 435 -64
2020-05-05 14:00:02 GMT 55.340332 50.797874 35,000 84 435 0
2020-05-05 13:59:51 GMT 55.338322 50.760582 35,000 84 436 0
2020-05-05 13:59:42 GMT 55.336319 50.723709 35,000 85 435 0
2020-05-05 13:59:31 GMT 55.335060 50.688339 35,000 87 435 0
2020-05-05 13:59:21 GMT 55.334702 50.651173 35,000 90 435 0
2020-05-05 13:59:11 GMT 55.335251 50.615227 35,000 92 434 0
2020-05-05 13:59:00 GMT 55.336761 50.578953 35,025 95 434 64
2020-05-05 13:58:50 GMT 55.338879 50.543102 35,000 96 434 64
2020-05-05 13:58:40 GMT 55.340973 50.508514 35,000 95 434 0
2020-05-05 13:58:29 GMT 55.343067 50.473354 35,000 95 435 0
2020-05-05 13:58:19 GMT 55.345367 50.434597 35,000 95 436 0
2020-05-05 13:58:09 GMT 55.347305 50.401363 35,000 95 436 0
2020-05-05 13:57:59 GMT 55.349487 50.364883 35,000 95 436 0
2020-05-05 13:57:48 GMT 55.351589 50.328869 35,000 95 437 0
2020-05-05 13:57:37 GMT 55.353836 50.290241 35,000 95 436 0
2020-05-05 13:57:28 GMT 55.355988 50.253323 35,000 95 436 0
2020-05-05 13:57:17 GMT 55.357956 50.219315 35,000 95 436 0
2020-05-05 13:57:06 GMT 55.360153 50.181053 35,000 95 436 0
2020-05-05 13:56:57 GMT 55.362030 50.147823 35,000 95 436 64
2020-05-05 13:56:46 GMT 55.364136 50.111149 35,000 95 436 0
2020-05-05 13:56:35 GMT 55.366344 50.072105 35,000 95 436 0
2020-05-05 13:56:25 GMT 55.368160 50.039310 35,000 95 435 -64
2020-05-05 13:56:16 GMT 55.370209 50.002773 35,000 95 434 0
2020-05-05 13:56:05 GMT 55.372238 49.966545 35,000 95 434 64
2020-05-05 13:55:55 GMT 55.374165 49.931030 35,000 95 434 0
2020-05-05 13:55:45 GMT 55.376167 49.894657 35,000 95 435 0
2020-05-05 13:55:33 GMT 55.378326 49.855473 35,000 95 435 0
2020-05-05 13:55:24 GMT 55.380123 49.822250 35,000 95 435 0
2020-05-05 13:55:14 GMT 55.382126 49.784878 35,000 95 436 0
2020-05-05 13:55:03 GMT 55.384048 49.749729 35,000 95 436 0
2020-05-05 13:54:53 GMT 55.385971 49.713779 35,000 95 436 -64
2020-05-05 13:54:42 GMT 55.387894 49.677269 35,000 95 435 0
2020-05-05 13:54:33 GMT 55.389900 49.639145 35,000 95 435 0
2020-05-05 13:54:22 GMT 55.391739 49.604321 35,000 95 434 -64
2020-05-05 13:54:12 GMT 55.393578 49.569229 35,000 95 432 0
2020-05-05 13:54:02 GMT 55.395489 49.532776 35,000 95 431 0
2020-05-05 13:53:51 GMT 55.397350 49.496323 35,000 95 431 0
2020-05-05 13:53:43 GMT 55.398884 49.466858 35,000 95 432 0
2020-05-05 13:53:31 GMT 55.401077 49.423290 35,000 95 432 -64
2020-05-05 13:53:22 GMT 55.402542 49.394371 35,000 95 433 0
2020-05-05 13:53:10 GMT 55.404648 49.352604 35,000 95 433 128
2020-05-05 13:53:00 GMT 55.406616 49.313267 35,000 95 434 0
2020-05-05 13:52:51 GMT 55.407898 49.287495 35,000 95 435 0
2020-05-05 13:52:48 GMT 55.408356 49.278366 35,000 95 435 0
2020-05-05 13:52:38 GMT 55.410187 49.242096 35,000 95 435 0
2020-05-05 13:52:29 GMT 55.412064 49.204048 35,000 95 434 64
2020-05-05 13:52:18 GMT 55.413830 49.167980 35,000 94 433 64
2020-05-05 13:52:10 GMT 55.415085 49.142014 35,000 94 433 0
2020-05-05 13:52:07 GMT 55.415588 49.131264 35,000 94 433 64
2020-05-05 13:52:00 GMT 55.416733 49.107513 35,000 94 434 0
2020-05-05 13:51:57 GMT 55.417320 49.095737 35,000 94 434 64
2020-05-05 13:51:49 GMT 55.418564 49.069221 35,000 94 435 192
2020-05-05 13:51:46 GMT 55.418995 49.060448 35,000 94 435 -64
2020-05-05 13:51:39 GMT 55.420254 49.033730 35,000 94 434 0
2020-05-05 13:51:36 GMT 55.420673 49.025158 35,000 94 434 0
2020-05-05 13:51:29 GMT 55.421906 48.999023 35,000 94 434 -128
2020-05-05 13:51:26 GMT 55.422455 48.987957 35,000 94 434 -64
2020-05-05 13:51:19 GMT 55.423599 48.963398 35,025 94 434 128
2020-05-05 13:51:16 GMT 55.424103 48.952576 35,000 94 435 128
2020-05-05 13:51:09 GMT 55.425282 48.927280 35,000 94 435 128
2020-05-05 13:51:06 GMT 55.425838 48.915627 35,000 94 436 0
2020-05-05 13:50:58 GMT 55.426987 48.890614 35,000 94 436 -64
2020-05-05 13:50:55 GMT 55.427563 48.878090 35,000 94 437 -64
2020-05-05 13:50:48 GMT 55.428680 48.854424 35,000 94 437 128
2020-05-05 13:50:45 GMT 55.429192 48.842552 35,000 94 437 -64
2020-05-05 13:50:37 GMT 55.430401 48.817165 35,000 94 437 -64
2020-05-05 13:50:34 GMT 55.431152 48.800381 35,000 94 437 64
2020-05-05 13:50:28 GMT 55.431984 48.782127 35,000 94 437 64
2020-05-05 13:50:24 GMT 55.432590 48.768311 35,000 94 437 0
2020-05-05 13:50:17 GMT 55.433708 48.744259 35,000 94 437 64
2020-05-05 13:50:14 GMT 55.434174 48.733898 35,000 94 437 0
2020-05-05 13:50:07 GMT 55.435242 48.709633 35,000 94 438 0
2020-05-05 13:50:03 GMT 55.435913 48.694477 35,000 94 438 0
2020-05-05 13:49:54 GMT 55.437431 48.661362 35,000 94 438 64
2020-05-05 13:49:47 GMT 55.438614 48.634857 35,000 94 438 0
2020-05-05 13:49:43 GMT 55.439072 48.624519 35,000 94 438 64
2020-05-05 13:49:36 GMT 55.440170 48.599556 35,000 94 437 -128
2020-05-05 13:49:32 GMT 55.440765 48.585258 35,000 94 437 -128
2020-05-05 13:49:23 GMT 55.442318 48.550747 35,025 94 436 256
2020-05-05 13:49:15 GMT 55.443375 48.526451 35,025 94 436 64
2020-05-05 13:49:11 GMT 55.444088 48.509274 35,000 94 436 0
2020-05-05 13:49:06 GMT 55.444885 48.491238 35,025 94 436 128
2020-05-05 13:49:01 GMT 55.445530 48.476830 35,000 94 436 64
2020-05-05 13:48:55 GMT 55.446442 48.454952 35,000 94 436 64
2020-05-05 13:48:51 GMT 55.447021 48.441895 35,000 94 436 -64
2020-05-05 13:48:45 GMT 55.447998 48.418663 35,000 94 436 -64
2020-05-05 13:48:41 GMT 55.448605 48.403873 35,000 94 436 0
2020-05-05 13:48:34 GMT 55.449535 48.381557 35,000 94 436 -64
2020-05-05 13:48:30 GMT 55.450195 48.366810 35,000 94 436 -64
2020-05-05 13:48:25 GMT 55.451023 48.346279 35,000 94 435 -64
2020-05-05 13:48:14 GMT 55.452576 48.309464 35,000 94 435 128
2020-05-05 13:48:11 GMT 55.453217 48.294151 35,000 94 435 0
2020-05-05 13:48:04 GMT 55.454041 48.274426 35,000 94 435 0
2020-05-05 13:47:58 GMT 55.455048 48.250374 35,000 94 436 0
2020-05-05 13:47:53 GMT 55.455551 48.237221 35,000 94 436 0
2020-05-05 13:47:43 GMT 55.457077 48.200626 35,000 94 437 0
2020-05-05 13:47:33 GMT 55.458519 48.165436 35,000 94 438 0
2020-05-05 13:47:22 GMT 55.460011 48.128185 35,000 94 439 0
2020-05-05 13:47:19 GMT 55.460567 48.113853 35,000 94 439 -64
2020-05-05 13:47:13 GMT 55.461502 48.090988 35,000 94 440 0
2020-05-05 13:47:07 GMT 55.462429 48.067245 35,000 94 440 64
2020-05-05 13:47:02 GMT 55.462849 48.056431 35,000 94 440 0
2020-05-05 13:46:57 GMT 55.463638 48.036606 35,000 93 440 -64
2020-05-05 13:46:52 GMT 55.464382 48.018322 35,000 93 440 64
2020-05-05 13:46:42 GMT 55.465714 47.983204 35,000 93 439 -128
2020-05-05 13:46:32 GMT 55.467133 47.946823 35,025 93 438 64
2020-05-05 13:46:21 GMT 55.468597 47.909630 35,000 93 437 64
2020-05-05 13:46:10 GMT 55.470016 47.872509 35,000 93 437 64
2020-05-05 13:46:00 GMT 55.471344 47.836552 35,000 93 438 -128
2020-05-05 13:45:57 GMT 55.471985 47.820324 35,000 93 438 -64
2020-05-05 13:45:51 GMT 55.472717 47.799850 35,025 93 437 0
2020-05-05 13:45:46 GMT 55.473358 47.783035 35,025 93 437 128
2020-05-05 13:45:40 GMT 55.474022 47.764606 35,025 93 436 64
2020-05-05 13:45:35 GMT 55.474812 47.744350 35,025 93 436 128
2020-05-05 13:45:29 GMT 55.475418 47.727097 35,000 93 437 64
2020-05-05 13:45:26 GMT 55.476013 47.710629 35,000 93 437 64
2020-05-05 13:45:19 GMT 55.476723 47.691307 35,000 93 438 -64
2020-05-05 13:45:15 GMT 55.477341 47.675255 35,000 93 438 -128
2020-05-05 13:45:10 GMT 55.478069 47.654400 35,000 93 438 0
2020-05-05 13:44:59 GMT 55.479401 47.618160 35,000 93 437 0
2020-05-05 13:44:49 GMT 55.480682 47.582703 35,000 93 436 -64
2020-05-05 13:44:38 GMT 55.481964 47.546082 35,000 93 436 192
2020-05-05 13:44:29 GMT 55.483238 47.510033 34,975 93 435 -128
2020-05-05 13:44:18 GMT 55.484573 47.472923 35,025 93 434 64
2020-05-05 13:44:08 GMT 55.485752 47.437675 35,000 93 431 -64
2020-05-05 13:43:57 GMT 55.487057 47.400684 35,000 93 431 0
2020-05-05 13:43:48 GMT 55.488266 47.364380 35,000 93 432 64
2020-05-05 13:43:37 GMT 55.489429 47.329445 35,000 93 433 -64
2020-05-05 13:43:27 GMT 55.490662 47.293064 35,000 93 433 0
2020-05-05 13:43:16 GMT 55.491802 47.257519 35,000 93 434 0
2020-05-05 13:43:06 GMT 55.493042 47.220821 35,025 93 434 64
2020-05-05 13:42:56 GMT 55.494232 47.184364 35,025 93 434 0
2020-05-05 13:42:45 GMT 55.495388 47.147999 35,000 93 436 64
2020-05-05 13:42:36 GMT 55.496567 47.111954 35,000 93 437 -64
2020-05-05 13:42:25 GMT 55.497711 47.075085 35,000 93 437 64
2020-05-05 13:42:15 GMT 55.498878 47.038734 35,000 93 437 0
2020-05-05 13:42:05 GMT 55.499950 47.003460 35,000 93 437 -64
2020-05-05 13:41:55 GMT 55.501114 46.966469 35,025 93 436 0
2020-05-05 13:41:44 GMT 55.502232 46.930332 35,025 93 435 128
2020-05-05 13:41:34 GMT 55.503342 46.894058 35,000 93 436 64
2020-05-05 13:41:23 GMT 55.504440 46.856689 35,000 93 438 -64
2020-05-05 13:41:14 GMT 55.505535 46.821072 35,025 93 436 128
2020-05-05 13:41:03 GMT 55.506592 46.785194 35,000 93 435 64
2020-05-05 13:40:53 GMT 55.507679 46.748199 35,000 93 436 -192
2020-05-05 13:40:43 GMT 55.508701 46.712666 35,025 92 435 0
2020-05-05 13:40:33 GMT 55.509773 46.675243 35,000 92 434 128
2020-05-05 13:40:22 GMT 55.510750 46.640308 35,000 92 435 64
2020-05-05 13:40:10 GMT 55.511963 46.596622 35,000 92 436 -64
2020-05-05 13:40:00 GMT 55.512817 46.563389 35,025 92 436 0
2020-05-05 13:39:52 GMT 55.513596 46.531178 35,000 92 437 64
2020-05-05 13:39:41 GMT 55.514923 46.494141 35,000 94 437 64
2020-05-05 13:39:31 GMT 55.516891 46.457520 35,000 96 437 0
2020-05-05 13:39:20 GMT 55.519501 46.421955 35,000 98 437 -128
2020-05-05 13:39:11 GMT 55.522900 46.385651 35,000 100 436 64
2020-05-05 13:39:00 GMT 55.526917 46.348988 35,000 101 435 -64
2020-05-05 13:38:50 GMT 55.530762 46.314449 35,000 100 434 64
2020-05-05 13:38:39 GMT 55.534912 46.276901 35,000 100 434 -64
2020-05-05 13:38:30 GMT 55.538681 46.242619 35,000 100 435 0
2020-05-05 13:38:19 GMT 55.542545 46.207638 35,000 100 436 64
2020-05-05 13:38:09 GMT 55.546551 46.171074 35,000 100 438 0
2020-05-05 13:37:59 GMT 55.550446 46.135338 35,000 100 438 -64
2020-05-05 13:37:48 GMT 55.554321 46.100094 35,000 100 439 64
2020-05-05 13:37:37 GMT 55.558502 46.061928 35,000 100 439 0
2020-05-05 13:37:27 GMT 55.562378 46.026020 35,000 100 440 0
2020-05-05 13:37:18 GMT 55.566284 45.989937 35,000 100 440 0
2020-05-05 13:37:07 GMT 55.570129 45.954643 35,000 100 439 64
2020-05-05 13:36:57 GMT 55.573921 45.919247 35,000 100 439 -128
2020-05-05 13:36:46 GMT 55.577911 45.882069 35,000 100 438 0
2020-05-05 13:36:37 GMT 55.581696 45.846977 35,000 100 438 0
2020-05-05 13:36:26 GMT 55.585606 45.810070 35,000 100 438 0
2020-05-05 13:36:16 GMT 55.589401 45.774452 35,000 100 439 0
2020-05-05 13:36:08 GMT 55.592377 45.746403 35,000 100 439 0
2020-05-05 13:36:05 GMT 55.593243 45.737972 35,000 100 439 -64
2020-05-05 13:35:56 GMT 55.597012 45.702354 35,000 100 439 0
2020-05-05 13:35:45 GMT 55.600800 45.666588 35,000 100 439 0
2020-05-05 13:35:35 GMT 55.604691 45.629635 35,000 100 439 -64
2020-05-05 13:35:25 GMT 55.608353 45.594425 35,000 100 439 -64
2020-05-05 13:35:15 GMT 55.612152 45.558224 35,000 100 439 0
2020-05-05 13:35:04 GMT 55.616005 45.520992 35,000 100 440 64
2020-05-05 13:34:57 GMT 55.618706 45.495071 35,000 100 440 0
2020-05-05 13:34:54 GMT 55.619637 45.486057 35,000 100 440 -64
2020-05-05 13:34:46 GMT 55.622570 45.457993 35,000 100 441 0
2020-05-05 13:34:43 GMT 55.623459 45.449272 35,000 100 441 64
2020-05-05 13:34:34 GMT 55.627132 45.413616 35,000 100 441 0
2020-05-05 13:34:25 GMT 55.630005 45.385853 35,000 100 442 64
2020-05-05 13:34:22 GMT 55.631088 45.375423 35,000 100 442 64
2020-05-05 13:34:13 GMT 55.634674 45.340233 35,000 100 443 0
2020-05-05 13:34:06 GMT 55.637421 45.313625 35,000 100 444 0
2020-05-05 13:34:02 GMT 55.638489 45.302982 35,000 100 444 0
2020-05-05 13:33:55 GMT 55.641144 45.277061 35,000 100 444 0
2020-05-05 13:33:52 GMT 55.642307 45.265732 35,000 100 444 64
2020-05-05 13:33:45 GMT 55.644882 45.240368 35,000 100 444 -128
2020-05-05 13:33:41 GMT 55.646164 45.227551 35,000 100 443 -64
2020-05-05 13:33:35 GMT 55.648453 45.205135 35,000 100 443 64
2020-05-05 13:33:31 GMT 55.649616 45.193634 35,000 100 443 64
2020-05-05 13:33:22 GMT 55.653305 45.157055 35,000 100 442 0
2020-05-05 13:33:15 GMT 55.655762 45.132607 35,000 100 442 -128
2020-05-05 13:33:11 GMT 55.656967 45.120602 35,000 100 442 -128
2020-05-05 13:33:04 GMT 55.659531 45.094845 35,025 100 441 -64
2020-05-05 13:33:01 GMT 55.660629 45.083981 35,025 100 441 64
2020-05-05 13:32:53 GMT 55.663582 45.054501 35,025 100 441 64
2020-05-05 13:32:50 GMT 55.664383 45.046692 35,000 100 441 64
2020-05-05 13:32:41 GMT 55.667953 45.010986 35,000 100 441 64
2020-05-05 13:32:30 GMT 55.671494 44.975109 35,000 99 443 0
2020-05-05 13:32:22 GMT 55.674706 44.942924 35,000 99 443 64
2020-05-05 13:32:12 GMT 55.677841 44.911026 35,000 99 443 64
2020-05-05 13:32:09 GMT 55.678757 44.901726 35,000 99 443 64
2020-05-05 13:32:00 GMT 55.682484 44.863956 35,000 99 443 0
2020-05-05 13:31:52 GMT 55.684982 44.838699 35,000 99 443 -64
2020-05-05 13:31:49 GMT 55.685989 44.828548 35,000 99 443 0
2020-05-05 13:31:39 GMT 55.689514 44.792343 35,000 99 443 0
2020-05-05 13:31:32 GMT 55.692169 44.765125 35,000 99 443 -128
2020-05-05 13:31:28 GMT 55.693375 44.753063 35,000 99 443 0
2020-05-05 13:31:21 GMT 55.695656 44.729378 35,000 99 442 0
2020-05-05 13:31:18 GMT 55.696819 44.717361 35,000 99 442 -64
2020-05-05 13:31:11 GMT 55.699127 44.693882 35,000 99 441 0
2020-05-05 13:31:07 GMT 55.700588 44.678391 35,000 99 440 0
2020-05-05 13:31:00 GMT 55.702778 44.656075 35,000 99 440 0
2020-05-05 13:30:56 GMT 55.704502 44.637794 35,000 99 440 64
2020-05-05 13:30:48 GMT 55.707230 44.609737 35,000 99 440 0
2020-05-05 13:30:36 GMT 55.711258 44.567619 35,000 99 440 0
2020-05-05 13:30:27 GMT 55.714321 44.535828 35,000 99 440 -64
2020-05-05 13:30:14 GMT 55.718559 44.491283 35,000 99 440 -64
2020-05-05 13:30:06 GMT 55.721512 44.460171 35,000 99 441 -64
2020-05-05 13:29:59 GMT 55.723495 44.439526 35,000 99 441 64
2020-05-05 13:29:55 GMT 55.724846 44.425106 35,000 99 441 64
2020-05-05 13:29:46 GMT 55.728012 44.391174 35,000 99 443 -128
2020-05-05 13:29:35 GMT 55.732201 44.346912 35,000 99 443 -128
2020-05-05 13:29:26 GMT 55.734947 44.317474 35,025 99 443 128
2020-05-05 13:29:13 GMT 55.738815 44.276318 35,000 99 443 -64
2020-05-05 13:29:05 GMT 55.742069 44.240913 35,000 99 443 64
2020-05-05 13:28:54 GMT 55.745636 44.202576 35,000 99 443 64
2020-05-05 13:28:43 GMT 55.749069 44.165539 35,000 99 442 -128
2020-05-05 13:28:34 GMT 55.751999 44.133827 35,000 99 441 64
2020-05-05 13:28:24 GMT 55.755341 44.097790 35,000 99 440 64
2020-05-05 13:28:13 GMT 55.758781 44.060154 35,000 99 440 0
2020-05-05 13:28:04 GMT 55.761978 44.024879 35,000 99 440 0
2020-05-05 13:27:53 GMT 55.765457 43.986927 35,000 99 441 -64
2020-05-05 13:27:43 GMT 55.768696 43.951149 35,000 99 441 0
2020-05-05 13:27:33 GMT 55.771912 43.915432 35,000 99 441 0
2020-05-05 13:27:23 GMT 55.775299 43.877647 35,000 98 441 64
2020-05-05 13:27:15 GMT 55.777447 43.853645 35,025 98 441 192
2020-05-05 13:27:12 GMT 55.778503 43.841690 35,000 98 441 128
2020-05-05 13:27:04 GMT 55.780941 43.814590 35,000 98 442 0
2020-05-05 13:27:01 GMT 55.781872 43.804462 35,000 98 442 64
2020-05-05 13:26:52 GMT 55.785034 43.768414 35,000 98 442 -64
2020-05-05 13:26:41 GMT 55.788300 43.731995 35,000 98 442 -64
2020-05-05 13:26:31 GMT 55.791641 43.694042 35,000 98 440 64
2020-05-05 13:26:21 GMT 55.794720 43.658981 35,000 98 439 -64
2020-05-05 13:26:14 GMT 55.796906 43.634533 35,000 98 438 64
2020-05-05 13:26:11 GMT 55.797958 43.622047 35,000 98 438 0
2020-05-05 13:26:06 GMT 55.799698 43.602322 35,000 98 438 0
2020-05-05 13:25:59 GMT 55.801422 43.582851 35,000 98 438 -64
2020-05-05 13:25:49 GMT 55.804413 43.548141 35,000 98 438 0
2020-05-05 13:25:44 GMT 55.806171 43.527920 35,000 98 438 0
2020-05-05 13:25:39 GMT 55.807526 43.512436 35,000 98 438 0
2020-05-05 13:25:35 GMT 55.808990 43.495705 35,000 98 438 0
2020-05-05 13:25:28 GMT 55.811199 43.470154 35,000 98 438 -64
2020-05-05 13:25:25 GMT 55.812057 43.459915 35,000 98 438 0
2020-05-05 13:25:19 GMT 55.813889 43.438774 35,000 98 438 64
2020-05-05 13:25:15 GMT 55.815170 43.423962 35,000 98 438 0
2020-05-05 13:25:07 GMT 55.817345 43.398659 35,000 98 439 0
2020-05-05 13:25:04 GMT 55.818367 43.386810 35,000 98 439 0
2020-05-05 13:24:59 GMT 55.820068 43.366783 35,000 98 439 64
2020-05-05 13:24:54 GMT 55.821442 43.350803 35,000 98 440 128
2020-05-05 13:24:48 GMT 55.823395 43.328102 35,000 98 440 0
2020-05-05 13:24:43 GMT 55.824646 43.313351 35,000 98 441 -64
2020-05-05 13:24:38 GMT 55.826340 43.293205 35,000 98 441 -64
2020-05-05 13:24:34 GMT 55.827576 43.278393 35,000 98 441 -64
2020-05-05 13:24:27 GMT 55.829449 43.256435 35,000 98 440 -64
2020-05-05 13:24:23 GMT 55.830734 43.241104 35,000 98 440 -64
2020-05-05 13:24:18 GMT 55.832474 43.220818 35,000 98 439 0
2020-05-05 13:24:14 GMT 55.833729 43.205540 35,000 98 440 0
2020-05-05 13:24:08 GMT 55.835640 43.182793 35,000 98 439 64
2020-05-05 13:24:03 GMT 55.836895 43.168118 35,000 98 439 0
2020-05-05 13:23:57 GMT 55.838665 43.146999 35,000 98 439 0
2020-05-05 13:23:53 GMT 55.839890 43.132492 35,000 98 439 -128
2020-05-05 13:23:46 GMT 55.841923 43.107605 35,000 98 439 0
2020-05-05 13:23:42 GMT 55.842957 43.095287 35,000 98 439 0
2020-05-05 13:23:37 GMT 55.844925 43.071651 35,000 98 440 -64
2020-05-05 13:23:32 GMT 55.845928 43.059368 35,000 98 440 64
2020-05-05 13:23:23 GMT 55.848953 43.023148 35,000 98 441 64
2020-05-05 13:23:15 GMT 55.851002 42.998257 35,000 98 442 -64
2020-05-05 13:23:12 GMT 55.851887 42.987354 35,000 98 442 0
2020-05-05 13:23:05 GMT 55.853981 42.961864 35,000 98 442 0
2020-05-05 13:23:02 GMT 55.854912 42.950706 35,000 98 443 0
2020-05-05 13:22:56 GMT 55.856960 42.925644 35,000 98 443 0
2020-05-05 13:22:52 GMT 55.857971 42.913181 35,000 98 443 0
2020-05-05 13:22:45 GMT 55.859894 42.889683 35,000 98 444 0
2020-05-05 13:22:41 GMT 55.861176 42.873978 35,000 98 444 -64
2020-05-05 13:22:32 GMT 55.863968 42.839687 35,000 98 443 128
2020-05-05 13:22:21 GMT 55.866898 42.803650 35,000 98 443 0
2020-05-05 13:22:15 GMT 55.869049 42.776768 35,000 98 442 -64
2020-05-05 13:22:11 GMT 55.869900 42.766171 35,000 98 442 0
2020-05-05 13:22:00 GMT 55.872879 42.728748 35,000 98 440 -64
2020-05-05 13:21:51 GMT 55.875671 42.693813 35,025 98 438 -64
2020-05-05 13:21:41 GMT 55.878605 42.657421 35,025 98 437 -64
2020-05-05 13:21:30 GMT 55.881538 42.620518 35,025 98 437 64
2020-05-05 13:21:20 GMT 55.884338 42.584839 35,025 98 438 64
2020-05-05 13:21:10 GMT 55.887218 42.548416 35,000 97 440 64
2020-05-05 13:20:59 GMT 55.890152 42.511082 35,000 97 442 -128
2020-05-05 13:20:49 GMT 55.892899 42.475807 35,000 97 443 0
2020-05-05 13:20:39 GMT 55.895828 42.438023 35,000 97 443 -64
2020-05-05 13:20:29 GMT 55.898624 42.401993 35,000 97 443 0
2020-05-05 13:20:19 GMT 55.901459 42.365360 35,000 97 443 -64
2020-05-05 13:20:08 GMT 55.904350 42.328007 35,000 97 443 64
2020-05-05 13:19:59 GMT 55.907089 42.292202 35,000 97 443 64
2020-05-05 13:19:49 GMT 55.909981 42.253933 35,000 97 443 64
2020-05-05 13:19:38 GMT 55.912720 42.218044 35,000 97 442 -64
2020-05-05 13:19:31 GMT 55.914871 42.189331 35,000 97 441 0
2020-05-05 13:19:27 GMT 55.915569 42.180290 35,000 97 441 0
2020-05-05 13:19:20 GMT 55.917618 42.153126 35,000 97 441 0
2020-05-05 13:19:17 GMT 55.918304 42.143555 35,000 97 441 -64
2020-05-05 13:19:10 GMT 55.920456 42.115059 35,000 97 442 0
2020-05-05 13:19:07 GMT 55.921051 42.107597 35,025 97 442 64
2020-05-05 13:18:58 GMT 55.923798 42.070560 35,000 97 443 0
2020-05-05 13:18:47 GMT 55.926556 42.033520 35,000 97 444 0
2020-05-05 13:18:36 GMT 55.929348 41.995411 35,000 97 445 64
2020-05-05 13:18:27 GMT 55.931908 41.961079 35,000 97 445 0
2020-05-05 13:18:16 GMT 55.934704 41.922626 35,000 97 446 64
2020-05-05 13:18:07 GMT 55.937309 41.886921 35,000 97 446 0
2020-05-05 13:17:56 GMT 55.940102 41.848724 35,000 97 445 -128
2020-05-05 13:17:46 GMT 55.942703 41.812717 35,025 97 445 64
2020-05-05 13:17:35 GMT 55.945454 41.774570 35,000 97 444 0
2020-05-05 13:17:26 GMT 55.948063 41.738434 35,000 97 444 0
2020-05-05 13:17:15 GMT 55.950760 41.700939 35,000 97 444 64
2020-05-05 13:17:06 GMT 55.953323 41.665066 35,000 97 443 0
2020-05-05 13:16:55 GMT 55.956024 41.627197 35,000 97 443 -64
2020-05-05 13:16:45 GMT 55.958542 41.591408 35,000 97 443 64
2020-05-05 13:16:34 GMT 55.961426 41.550625 35,000 97 443 0
2020-05-05 13:16:25 GMT 55.963943 41.514671 35,000 97 443 128
2020-05-05 13:16:15 GMT 55.966324 41.480965 35,000 97 442 0
2020-05-05 13:16:02 GMT 55.969429 41.436310 35,000 97 442 0
2020-05-05 13:15:52 GMT 55.971989 41.398888 35,000 96 443 -64
2020-05-05 13:15:43 GMT 55.974060 41.368935 35,000 96 443 -64
2020-05-05 13:15:33 GMT 55.976578 41.332481 35,000 96 441 0
2020-05-05 13:15:24 GMT 55.979004 41.296360 35,000 96 442 0
2020-05-05 13:15:13 GMT 55.981476 41.260071 35,000 96 444 0
2020-05-05 13:15:03 GMT 55.984039 41.221619 35,000 96 444 0
2020-05-05 13:14:52 GMT 55.986748 41.181309 35,000 96 447 -64
2020-05-05 13:14:42 GMT 55.988983 41.148350 35,000 96 446 0
2020-05-05 13:14:31 GMT 55.991867 41.104599 35,000 96 447 0
2020-05-05 13:14:22 GMT 55.993961 41.073158 35,000 96 448 64
2020-05-05 13:14:18 GMT 55.995026 41.056824 35,000 96 449 0
2020-05-05 13:14:12 GMT 55.996399 41.036098 35,000 96 449 -64
2020-05-05 13:14:08 GMT 55.997452 41.020203 35,000 96 449 0
2020-05-05 13:14:02 GMT 55.998825 40.999561 35,000 96 450 64
2020-05-05 13:13:58 GMT 56.000061 40.980667 35,000 96 450 -64
2020-05-05 13:13:50 GMT 56.001755 40.954453 35,000 96 451 -64
2020-05-05 13:13:46 GMT 56.002533 40.942715 35,000 96 451 -64
2020-05-05 13:13:42 GMT 56.003815 40.923325 35,000 96 451 64
2020-05-05 13:13:37 GMT 56.005043 40.904503 35,000 96 451 -64
2020-05-05 13:13:31 GMT 56.007477 40.866562 35,000 96 451 0
2020-05-05 13:13:26 GMT 56.007477 40.866562 35,000 96 451 0
2020-05-05 13:13:21 GMT 56.008667 40.847916 35,000 96 451 -64
2020-05-05 13:13:17 GMT 56.009857 40.829689 35,000 96 451 -64
2020-05-05 13:13:09 GMT 56.011551 40.803806 35,000 96 449 -64
2020-05-05 13:13:05 GMT 56.012257 40.792580 35,000 96 449 0
2020-05-05 13:12:55 GMT 56.014801 40.752369 35,000 96 448 0
2020-05-05 13:12:46 GMT 56.017044 40.716995 35,000 96 447 -64
2020-05-05 13:12:38 GMT 56.018681 40.691128 35,000 96 446 -64
2020-05-05 13:12:35 GMT 56.019333 40.680656 35,000 96 445 0
2020-05-05 13:12:28 GMT 56.020962 40.654907 35,025 96 445 64
2020-05-05 13:12:25 GMT 56.021759 40.641922 35,025 96 445 0
2020-05-05 13:12:19 GMT 56.023544 40.613792 35,025 96 445 0
2020-05-05 13:12:15 GMT 56.024036 40.605469 35,025 96 445 -64
2020-05-05 13:12:08 GMT 56.025524 40.581093 35,025 96 446 64
2020-05-05 13:12:04 GMT 56.026337 40.568184 35,025 96 446 -64
2020-05-05 13:11:54 GMT 56.028671 40.530312 35,025 96 446 0
2020-05-05 13:11:44 GMT 56.030972 40.492771 35,000 96 446 128
2020-05-05 13:11:34 GMT 56.033298 40.454323 35,000 96 448 320
2020-05-05 13:11:24 GMT 56.035538 40.417370 34,925 96 450 960
2020-05-05 13:11:16 GMT 56.037277 40.388821 34,800 96 451 1024
2020-05-05 13:11:12 GMT 56.037918 40.378750 34,775 96 451 1024
2020-05-05 13:11:03 GMT 56.040237 40.340080 34,575 96 453 1024
2020-05-05 13:10:52 GMT 56.042656 40.299740 34,400 96 453 1024
2020-05-05 13:10:42 GMT 56.044891 40.262402 34,225 96 452 960
2020-05-05 13:10:32 GMT 56.047127 40.224380 34,050 95 451 1408
2020-05-05 13:10:21 GMT 56.049362 40.185989 33,675 95 452 1536
2020-05-05 13:10:11 GMT 56.051594 40.147560 33,575 95 453 1536
2020-05-05 13:10:04 GMT 56.053024 40.122154 33,350 95 454 1408
2020-05-05 13:10:01 GMT 56.053757 40.108837 33,275 95 454 1408
2020-05-05 13:09:52 GMT 56.055450 40.077709 33,000 95 455 1536
2020-05-05 13:09:49 GMT 56.056065 40.066280 33,000 95 455 1536
2020-05-05 13:09:42 GMT 56.057419 40.040672 32,775 95 454 1664
2020-05-05 13:09:39 GMT 56.058018 40.028088 32,725 95 454 1664
2020-05-05 13:09:31 GMT 56.059479 39.997311 32,500 94 456 1600
2020-05-05 13:09:28 GMT 56.059929 39.987743 32,450 94 456 1536
2020-05-05 13:09:22 GMT 56.060905 39.963715 32,250 93 456 1280
2020-05-05 13:09:19 GMT 56.061275 39.954102 32,225 93 456 1216
2020-05-05 13:09:11 GMT 56.062271 39.924900 32,050 92 456 1024
2020-05-05 13:09:08 GMT 56.062546 39.914078 32,025 92 456 1088
2020-05-05 13:09:00 GMT 56.063095 39.885780 31,875 91 456 1152
2020-05-05 13:08:57 GMT 56.063187 39.874275 31,825 90 455 1216
2020-05-05 13:08:48 GMT 56.062912 39.834927 31,625 87 454 1088
2020-05-05 13:08:40 GMT 56.061951 39.807045 31,475 84 454 960
2020-05-05 13:08:37 GMT 56.061371 39.797375 31,425 83 454 960
2020-05-05 13:08:30 GMT 56.059231 39.771626 31,325 79 453 1152
2020-05-05 13:08:27 GMT 56.057968 39.760269 31,275 77 453 1280
2020-05-05 13:08:20 GMT 56.054806 39.734200 30,900 77 451 1408
2020-05-05 13:08:16 GMT 56.053162 39.720570 31,025 77 452 1408
2020-05-05 13:08:10 GMT 56.050385 39.697983 30,875 77 450 1408
2020-05-05 13:08:07 GMT 56.048630 39.683781 30,775 77 450 1408
2020-05-05 13:08:02 GMT 56.046524 39.666553 30,675 77 449 1408
2020-05-05 13:07:59 GMT 56.045635 39.659184 30,650 77 449 1408
2020-05-05 13:07:55 GMT 56.043915 39.645367 30,525 77 449 1472
2020-05-05 13:07:50 GMT 56.039722 39.611118 30,325 77 445 1280
2020-05-05 13:07:46 GMT 56.039722 39.611118 30,300 77 447 1408
2020-05-05 13:07:41 GMT 56.037231 39.591396 30,175 77 446 1344
2020-05-05 13:07:37 GMT 56.035858 39.580479 30,125 77 445 1280
2020-05-05 13:07:30 GMT 56.032379 39.552780 29,925 77 443 1280
2020-05-05 13:07:27 GMT 56.031006 39.541710 29,925 77 443 1280
2020-05-05 13:07:23 GMT 56.028946 39.525394 29,800 77 442 1408
2020-05-05 13:07:18 GMT 56.025852 39.500828 29,625 77 440 1536
2020-05-05 13:07:08 GMT 56.022873 39.476967 29,450 77 439 1664
2020-05-05 13:07:05 GMT 56.021477 39.465897 29,350 77 439 1728
2020-05-05 13:06:59 GMT 56.018463 39.441586 29,150 77 438 1728
2020-05-05 13:06:54 GMT 56.016727 39.427273 29,025 77 437 1664
2020-05-05 13:06:48 GMT 56.013885 39.404442 28,850 77 436 1600
2020-05-05 13:06:45 GMT 56.012585 39.393799 28,775 77 435 1472
2020-05-05 13:06:37 GMT 56.008812 39.362812 28,550 77 424 1472
2020-05-05 13:06:34 GMT 56.008163 39.357773 28,375 76 405 0
2020-05-05 13:06:28 GMT 56.005508 39.336376 28,375 77 430 1472
2020-05-05 13:06:25 GMT 56.003632 39.321236 28,275 77 429 1472
2020-05-05 13:06:17 GMT 56.000946 39.299725 28,125 77 427 1344
2020-05-05 13:06:13 GMT 55.999146 39.285610 28,025 77 426 1344
2020-05-05 13:06:08 GMT 55.996616 39.265907 27,900 77 424 1536
2020-05-05 13:06:03 GMT 55.994385 39.248241 27,750 77 422 1728
2020-05-05 13:05:57 GMT 55.992050 39.229679 27,600 77 421 1856
2020-05-05 13:05:52 GMT 55.990005 39.213722 27,450 77 420 1856
2020-05-05 13:05:48 GMT 55.987885 39.197220 27,300 77 420 1792
2020-05-05 13:05:42 GMT 55.985489 39.178364 27,150 77 419 1600
2020-05-05 13:05:37 GMT 55.983353 39.161934 27,000 77 417 1536
2020-05-05 13:05:31 GMT 55.980743 39.141541 26,875 77 415 1600
2020-05-05 13:05:27 GMT 55.979095 39.128555 26,750 77 414 1600
2020-05-05 13:05:24 GMT 55.977539 39.116405 26,625 76 412 1536
2020-05-05 13:05:21 GMT 55.976166 39.106087 26,575 76 412 1536
2020-05-05 13:05:16 GMT 55.974701 39.094601 26,475 76 410 1536
2020-05-05 13:05:10 GMT 55.971756 39.071934 26,300 76 408 1728
2020-05-05 13:05:06 GMT 55.970406 39.061459 26,200 76 407 1984
2020-05-05 13:05:01 GMT 55.967560 39.039501 25,975 76 406 2240
2020-05-05 13:04:57 GMT 55.965797 39.026096 25,825 76 405 2240
2020-05-05 13:04:52 GMT 55.964127 39.013199 25,700 76 405 2176
2020-05-05 13:04:49 GMT 55.963051 39.005070 25,600 76 405 2112
2020-05-05 13:04:46 GMT 55.961796 38.995628 25,425 76 404 2048
2020-05-05 13:04:39 GMT 55.957188 38.961208 25,175 76 403 2240
2020-05-05 13:04:36 GMT 55.957188 38.961208 25,125 76 403 2304
2020-05-05 13:04:29 GMT 55.954422 38.940872 24,875 76 402 2432
2020-05-05 13:04:26 GMT 55.952911 38.929722 24,725 76 402 2304
2020-05-05 13:04:19 GMT 55.949783 38.906193 24,450 76 401 2112
2020-05-05 13:04:15 GMT 55.948380 38.895931 24,350 76 400 1920
2020-05-05 13:04:10 GMT 55.945736 38.875896 24,150 76 398 1344
2020-05-05 13:04:06 GMT 55.943985 38.862804 24,050 76 396 1280
2020-05-05 13:03:58 GMT 55.941174 38.841560 23,950 76 393 1664
2020-05-05 13:03:55 GMT 55.939869 38.831692 23,800 76 391 2176
2020-05-05 13:03:51 GMT 55.937897 38.816944 23,650 76 390 2112
2020-05-05 13:03:48 GMT 55.936935 38.809456 23,550 76 389 2176
2020-05-05 13:03:45 GMT 55.935562 38.799549 23,450 76 389 2240
2020-05-05 13:03:39 GMT 55.932907 38.779739 23,200 76 388 2304
2020-05-05 13:03:35 GMT 55.931442 38.768753 23,075 76 387 2176
2020-05-05 13:03:28 GMT 55.928558 38.747448 22,825 76 387 2240
2020-05-05 13:03:24 GMT 55.926601 38.733418 22,650 76 387 2176
2020-05-05 13:03:18 GMT 55.923901 38.713589 22,425 76 386 2304
2020-05-05 13:03:15 GMT 55.922653 38.704666 22,250 76 385 2240
2020-05-05 13:03:08 GMT 55.919861 38.684608 22,075 75 384 2240
2020-05-05 13:03:04 GMT 55.918083 38.671875 21,900 75 382 2176
2020-05-05 13:02:58 GMT 55.915569 38.653934 21,700 75 381 2240
2020-05-05 13:02:53 GMT 55.913101 38.636768 21,500 75 379 2176
2020-05-05 13:02:47 GMT 55.911098 38.622520 21,325 75 377 2176
2020-05-05 13:02:44 GMT 55.909607 38.612198 21,175 75 376 2176
2020-05-05 13:02:37 GMT 55.906494 38.591061 20,975 75 375 2176
2020-05-05 13:02:34 GMT 55.904984 38.581070 20,800 74 373 2240
2020-05-05 13:02:31 GMT 55.904072 38.574799 20,725 74 373 2368
2020-05-05 13:02:28 GMT 55.901791 38.560123 20,525 74 372 2368
2020-05-05 13:02:24 GMT 55.900440 38.551285 20,400 74 371 2240
2020-05-05 13:02:21 GMT 55.899368 38.544247 20,325 74 370 2240
2020-05-05 13:02:18 GMT 55.898018 38.535488 19,975 77 369 2304
2020-05-05 13:02:11 GMT 55.895004 38.514236 19,925 77 369 2304
2020-05-05 13:02:03 GMT 55.892532 38.491600 19,475 99 350 2240
2020-05-05 13:02:00 GMT 55.891983 38.482693 19,525 85 364 2112
2020-05-05 13:01:57 GMT 55.891617 38.473705 19,425 89 361 2048
2020-05-05 13:01:51 GMT 55.891891 38.452316 19,175 94 355 2176
2020-05-05 13:01:47 GMT 55.892200 38.445885 19,100 97 353 2240
2020-05-05 13:01:42 GMT 55.893402 38.431423 18,900 99 350 2240
2020-05-05 13:01:39 GMT 55.894386 38.421333 18,775 99 348 2240
2020-05-05 13:01:33 GMT 55.896240 38.401546 18,475 99 348 2368
2020-05-05 13:01:30 GMT 55.896763 38.396015 18,375 99 347 2304
2020-05-05 13:01:26 GMT 55.897881 38.384342 18,275 99 347 2304
2020-05-05 13:01:22 GMT 55.898941 38.373081 18,125 99 347 2240
2020-05-05 13:01:19 GMT 55.899673 38.365089 17,975 99 346 2176
2020-05-05 13:01:16 GMT 55.900314 38.358265 17,925 99 346 2176
2020-05-05 13:01:13 GMT 55.901550 38.345200 17,775 99 346 2176
2020-05-05 13:01:10 GMT 55.902954 38.330441 17,425 99 344 2240
2020-05-05 13:01:07 GMT 55.902954 38.330441 17,575 99 345 2112
2020-05-05 13:01:02 GMT 55.904259 38.316448 17,375 99 344 2176
2020-05-05 13:00:59 GMT 55.904938 38.309326 17,300 99 344 2240
2020-05-05 13:00:56 GMT 55.905899 38.299088 17,175 99 343 2240
2020-05-05 13:00:51 GMT 55.907001 38.287182 17,025 99 342 2368
2020-05-05 13:00:48 GMT 55.909973 38.255562 16,800 99 338 2240
2020-05-05 13:00:40 GMT 55.909973 38.255562 16,350 99 337 2176
2020-05-05 13:00:37 GMT 55.910614 38.248734 16,475 99 338 2112
2020-05-05 13:00:34 GMT 55.911346 38.240910 16,225 99 337 2240
2020-05-05 13:00:31 GMT 55.912125 38.232334 16,250 99 337 2240
2020-05-05 13:00:28 GMT 55.912903 38.224014 16,150 99 337 2176
2020-05-05 13:00:25 GMT 55.913635 38.216110 16,050 99 337 2176
2020-05-05 13:00:19 GMT 55.915421 38.196884 15,775 99 335 2240
2020-05-05 13:00:16 GMT 55.916222 38.188560 15,675 99 334 2304
2020-05-05 13:00:11 GMT 55.917297 38.176743 15,450 99 332 2240
2020-05-05 13:00:08 GMT 55.918037 38.168819 15,450 99 332 2240
2020-05-05 13:00:05 GMT 55.918808 38.160343 15,275 99 331 2304
2020-05-05 13:00:01 GMT 55.920639 38.141037 15,000 99 330 2112
2020-05-05 12:59:58 GMT 55.920639 38.141037 14,950 99 329 2176
2020-05-05 12:59:55 GMT 55.921371 38.133045 14,900 99 329 2176
2020-05-05 12:59:51 GMT 55.922459 38.121014 14,600 99 327 2240
2020-05-05 12:59:48 GMT 55.923111 38.114231 14,650 99 328 2176
2020-05-05 12:59:44 GMT 55.923935 38.105164 14,525 99 327 2176
2020-05-05 12:59:38 GMT 55.925762 38.085220 14,225 99 326 2240
2020-05-05 12:59:35 GMT 55.926407 38.078445 14,150 99 324 2368
2020-05-05 12:59:30 GMT 55.927368 38.067711 13,975 99 324 2304
2020-05-05 12:59:27 GMT 55.928101 38.059635 13,850 99 324 2304
2020-05-05 12:59:24 GMT 55.928791 38.052261 13,750 99 323 2304
2020-05-05 12:59:20 GMT 55.930557 38.033211 13,550 99 323 2304
2020-05-05 12:59:17 GMT 55.930557 38.033211 13,475 99 323 2240
2020-05-05 12:59:14 GMT 55.931255 38.025482 13,375 99 322 2240
2020-05-05 12:59:10 GMT 55.932281 38.014324 13,200 99 321 2240
2020-05-05 12:59:07 GMT 55.932999 38.006371 13,100 99 321 2176
2020-05-05 12:59:03 GMT 55.933723 37.998447 12,975 99 320 2112
2020-05-05 12:59:00 GMT 55.936157 37.971912 12,575 99 315 2624
2020-05-05 12:58:54 GMT 55.936157 37.971912 12,625 99 317 2432
2020-05-05 12:58:50 GMT 55.937256 37.960011 12,000 99 314 3392
2020-05-05 12:58:47 GMT 55.937851 37.953354 12,000 99 314 3392
2020-05-05 12:58:43 GMT 55.938583 37.945030 12,150 99 314 3520
2020-05-05 12:58:40 GMT 55.939171 37.938538 12,000 99 314 3712
2020-05-05 12:58:37 GMT 55.939865 37.930714 11,600 99 314 3648
2020-05-05 12:58:33 GMT 55.940891 37.919395 11,525 99 314 3648
2020-05-05 12:58:29 GMT 55.941917 37.908237 10,450 99 294 1536
2020-05-05 12:58:25 GMT 55.942570 37.900772 11,175 99 314 3200
2020-05-05 12:58:20 GMT 55.943779 37.887726 10,450 99 294 1536
2020-05-05 12:58:17 GMT 55.944805 37.876568 10,725 99 302 960
2020-05-05 12:58:13 GMT 55.945641 37.867386 10,650 99 303 960
2020-05-05 12:58:08 GMT 55.946869 37.853977 10,425 99 291 1792
2020-05-05 12:58:05 GMT 55.947132 37.850735 10,525 99 293 1600
2020-05-05 12:58:01 GMT 55.948288 37.837997 10,400 99 285 2688
2020-05-05 12:57:58 GMT 55.948746 37.833084 10,200 99 283 3072
2020-05-05 12:57:55 GMT 55.949387 37.825844 10,200 99 283 3072
2020-05-05 12:57:52 GMT 55.950016 37.818890 9,950 99 278 3072
2020-05-05 12:57:48 GMT 55.950714 37.810947 9,825 99 278 3008
2020-05-05 12:57:42 GMT 55.952087 37.795883 9,525 99 277 3264
2020-05-05 12:57:38 GMT 55.952812 37.787731 9,225 98 275 2688
2020-05-05 12:57:35 GMT 55.953461 37.780354 9,150 98 275 2432
2020-05-05 12:57:29 GMT 55.954880 37.764503 8,900 99 274 1344
2020-05-05 12:57:24 GMT 55.955795 37.754601 8,800 99 272 1472
2020-05-05 12:57:21 GMT 55.956207 37.749798 8,750 99 270 2112
2020-05-05 12:57:17 GMT 55.957558 37.734692 8,450 99 265 3264
2020-05-05 12:57:11 GMT 55.958221 37.727219 8,275 99 264 3328
2020-05-05 12:57:06 GMT 55.959141 37.717178 8,050 99 262 3584
2020-05-05 12:57:01 GMT 55.960167 37.705936 7,700 99 262 3584
2020-05-05 12:56:56 GMT 55.960957 37.697010 6,725 99 237 640
2020-05-05 12:56:53 GMT 55.961609 37.689846 7,150 99 260 3456
2020-05-05 12:56:50 GMT 55.962120 37.683792 7,075 99 260 3456
2020-05-05 12:56:45 GMT 55.963051 37.673237 6,350 98 259 3584
2020-05-05 12:56:41 GMT 55.963982 37.662594 6,525 98 259 3648
2020-05-05 12:56:34 GMT 55.965099 37.650230 6,150 98 259 3584
2020-05-05 12:56:30 GMT 55.965912 37.640659 5,875 98 258 3456
2020-05-05 12:56:23 GMT 55.967289 37.624996 5,450 98 256 3392
2020-05-05 12:56:19 GMT 55.967834 37.618851 5,300 98 256 3136
2020-05-05 12:56:16 GMT 55.968639 37.609634 5,050 99 253 2368
2020-05-05 12:56:13 GMT 55.969105 37.604568 4,950 99 253 1920
2020-05-05 12:56:08 GMT 55.969940 37.595467 4,825 99 248 1280
2020-05-05 12:56:02 GMT 55.971085 37.582481 4,725 99 232 896
2020-05-05 12:55:58 GMT 55.971771 37.575073 4,650 99 224 512
2020-05-05 12:55:52 GMT 55.972736 37.564571 4,525 99 212 512
2020-05-05 12:55:47 GMT 55.973373 37.557430 4,575 99 205 768
2020-05-05 12:55:42 GMT 55.974224 37.547836 4,475 98 193 1472
2020-05-05 12:55:38 GMT 55.974792 37.541199 4,225 95 162 1728
2020-05-05 12:55:35 GMT 55.975250 37.535732 4,275 98 182 768
2020-05-05 12:55:28 GMT 55.975994 37.525780 4,200 97 169 1216
2020-05-05 12:55:24 GMT 55.976257 37.521973 4,150 95 161 2048
2020-05-05 12:55:18 GMT 55.976784 37.509899 3,700 92 159 2304
2020-05-05 12:55:11 GMT 55.976944 37.504330 3,700 92 159 2240
2020-05-05 12:55:07 GMT 55.977016 37.500031 3,550 93 157 2368
2020-05-05 12:55:03 GMT 55.977203 37.494190 3,100 93 157 2368
2020-05-05 12:54:58 GMT 55.977436 37.486813 3,100 93 156 2368
2020-05-05 12:54:54 GMT 55.977623 37.481319 3,000 93 155 2368
2020-05-05 12:54:46 GMT 55.977856 37.472904 2,725 91 154 2240
2020-05-05 12:54:43 GMT 55.977947 37.468700 2,600 91 154 2176
2020-05-05 12:54:40 GMT 55.977947 37.463806 2,525 88 154 2048
2020-05-05 12:54:37 GMT 55.977905 37.461132 2,050 75 149 1792
2020-05-05 12:54:26 GMT 55.976395 37.447563 2,075 75 150 1856
2020-05-05 12:54:20 GMT 55.975388 37.440243 1,875 75 144 2496
2020-05-05 12:54:15 GMT 55.974655 37.435329 1,700 74 142 2496
2020-05-05 12:54:01 GMT 55.972038 37.418232 975 74 145 3136
2020-05-05 12:53:56 GMT 55.971085 37.412693 800 74 147 64
2020-05-05 12:53:46 GMT 55.969349 37.401367 0 75 120
2020-05-05 12:53:34 GMT 55.968044 37.392548 0 75 64
2020-05-05 12:53:22 GMT 55.967556 37.389263 0 64 16
2020-05-05 12:53:07 GMT 55.967491 37.388866 0 64 0
2020-05-05 12:53:02 GMT 55.967499 37.388878 0 64 0
2020-05-05 12:52:53 GMT 55.967491 37.388866 0 64 0
2020-05-05 12:52:31 GMT 55.967487 37.388878 0 64 0
2020-05-05 12:52:11 GMT 55.967491 37.388866 0 64 0
2020-05-05 12:52:04 GMT 55.967476 37.388878 0 64 0
2020-05-05 12:51:53 GMT 55.967503 37.388847 0 64 0
2020-05-05 12:51:42 GMT 55.967491 37.388847 0 64 3
2020-05-05 12:47:23 GMT 55.968727 37.387642 0 154 3
2020-05-05 12:47:08 GMT 55.969009 37.387505 0 154 6
2020-05-05 12:47:05 GMT 55.969070 37.387474 0 255 7
2020-05-05 12:46:54 GMT 55.969524 37.387268 0 255 11
2020-05-05 12:46:06 GMT 55.971577 37.387016 0 255 10
2020-05-05 12:46:03 GMT 55.971630 37.387310 0 255 13
2020-05-05 12:45:55 GMT 55.971783 37.388386 0 255 19
2020-05-05 12:45:44 GMT 55.972034 37.390053 0 255 25
2020-05-05 12:45:33 GMT 55.972389 37.392445 0 255 28
2020-05-05 12:45:19 GMT 55.972839 37.395508 0 255 29
2020-05-05 12:45:13 GMT 55.973072 37.397011 0 255 28
2020-05-05 12:45:03 GMT 55.973362 37.398983 0 255 27
2020-05-05 12:44:53 GMT 55.973671 37.401020 0 255 26
2020-05-05 12:44:40 GMT 55.974098 37.403790 0 255 27
2020-05-05 12:44:32 GMT 55.974358 37.405556 0 255 25
2020-05-05 12:44:21 GMT 55.974667 37.407635 0 255 23
2020-05-05 12:44:07 GMT 55.975021 37.409988 0 255 21
2020-05-05 12:44:02 GMT 55.975143 37.410809 0 154 20
2020-05-05 12:43:49 GMT 55.975410 37.412693 0 154 16
2020-05-05 12:43:41 GMT 55.975559 37.413609 0 154 15
2020-05-05 12:43:30 GMT 55.975716 37.414669 0 154 12
2020-05-05 12:43:20 GMT 55.975857 37.415524 0 154 10
2020-05-05 12:43:10 GMT 55.976166 37.416000 0 154 8
2020-05-05 12:43:00 GMT 55.976482 37.415916 0 154 9
2020-05-05 12:42:49 GMT 55.976864 37.415730 0 154 8
2020-05-05 12:42:38 GMT 55.977249 37.415764 0 154 8
2020-05-05 12:42:19 GMT 55.978008 37.415524 0 154 9
2020-05-05 12:42:05 GMT 55.978462 37.415291 0 154 6
2020-05-05 12:41:58 GMT 55.978638 37.415211 0 154 5
2020-05-05 12:41:48 GMT 55.978798 37.415146 0 154 4
2020-05-05 12:41:37 GMT 55.978889 37.415108 0 154 0
2020-05-05 12:41:27 GMT 55.978882 37.415077 0 154 0
2020-05-05 12:41:08 GMT 55.978889 37.415085 0 154 0
2020-05-05 12:40:47 GMT 55.978889 37.415077 0 154 0
2020-05-05 12:40:32 GMT 55.978901 37.415085 0 154 0
2020-05-05 12:40:22 GMT 55.978889 37.415100 0 154 0
2020-05-05 12:40:08 GMT 55.978889 37.415077 0 154 0
2020-05-05 12:40:02 GMT 55.978878 37.415085 0 154 0
2020-05-05 12:39:52 GMT 55.978889 37.415085 0 154 0
2020-05-05 12:39:36 GMT 55.978882 37.415100 0 154 0
2020-05-05 12:39:31 GMT 55.978889 37.415085 0 154 0
2020-05-05 12:39:22 GMT 55.978889 37.415108 0 154 0
2020-05-05 12:39:12 GMT 55.978889 37.415100 0 154 0
2020-05-05 12:39:05 GMT 55.978901 37.415085 0 154 0
2020-05-05 12:38:54 GMT 55.978889 37.415100 0 154 0
2020-05-05 12:38:44 GMT 55.978867 37.415100 0 157 2
2020-05-05 12:38:33 GMT 55.978809 37.415119 0 154 2
2020-05-05 12:38:21 GMT 55.978741 37.415184 0 149 1
2020-05-05 12:38:09 GMT 55.978683 37.415314 0 123 2
2020-05-05 12:38:02 GMT 55.978645 37.415401 0 115 3
2020-05-05 12:37:44 GMT 55.978649 37.415646 0 75 2
2020-05-05 12:37:38 GMT 55.978672 37.415710 0 61 2
2020-05-05 12:37:32 GMT 55.978683 37.415813 0 64 3
2020-05-05 12:37:20 GMT 55.978718 37.416061 0 61 3
2020-05-05 12:37:10 GMT 55.978752 37.416248 0 64 3
2020-05-05 12:36:59 GMT 55.978775 37.416473 0 64 2
2020-05-05 12:36:51 GMT 55.978798 37.416584 0 64 2
2020-05-05 12:36:41 GMT 55.978809 37.416729 0 64 0
2020-05-05 12:36:26 GMT 55.978798 37.416775 0 64 0
2020-05-05 12:36:07 GMT 55.978809 37.416748 0 64 0
2020-05-05 12:35:42 GMT 55.978821 37.416748 0 64 0
2020-05-05 12:35:28 GMT 55.978832 37.416771 0 64 0
2020-05-05 12:35:17 GMT 55.978821 37.416771 0 64 0
We lost coverage of the aircraft here for a total of 34 minutes
2020-05-05 12:01:04 GMT 55.978786 37.416710 0 64 0
2020-05-05 12:01:00 GMT 55.978798 37.416710 0 64 0
2020-05-05 12:00:49 GMT 55.978798 37.416687 0 64 0
2020-05-05 12:00:37 GMT 55.978798 37.416664 0 64 2
2020-05-05 12:00:27 GMT 55.978798 37.416561 0 64 2
2020-05-05 12:00:19 GMT 55.978775 37.416431 0 64 2
2020-05-05 12:00:08 GMT 55.978752 37.416279 0 64 2
2020-05-05 11:59:50 GMT 55.978718 37.416023 0 64 2
2020-05-05 11:59:47 GMT 55.978706 37.415981 0 64 2
2020-05-05 11:59:38 GMT 55.978695 37.415833 0 64 2
2020-05-05 11:59:26 GMT 55.978672 37.415646 0 64 3
2020-05-05 11:59:10 GMT 55.978622 37.415337 0 64 3
2020-05-05 11:59:05 GMT 55.978615 37.415211 0 67 3
2020-05-05 11:58:57 GMT 55.978588 37.415035 0 73 3
2020-05-05 11:58:37 GMT 55.978580 37.414646 0 118 3
2020-05-05 11:58:31 GMT 55.978611 37.414562 0 135 3
2020-05-05 11:58:21 GMT 55.978706 37.414455 0 154 3
2020-05-05 11:58:15 GMT 55.978786 37.414413 0 154 0
2020-05-05 11:58:03 GMT 55.978798 37.414391 0 154 0
2020-05-05 11:57:53 GMT 55.978798 37.414371 0 154 0
2020-05-05 11:57:34 GMT 55.978809 37.414391 0 154 0
2020-05-05 11:57:23 GMT 55.978798 37.414375 0 154 0
2020-05-05 11:57:13 GMT 55.978798 37.414371 0 154 0
2020-05-05 11:56:59 GMT 55.978786 37.414356 0 154 0
2020-05-05 11:56:50 GMT 55.978775 37.414371 0 154 0
2020-05-05 11:56:39 GMT 55.978786 37.414356 0 154 0
2020-05-05 11:56:29 GMT 55.978798 37.414371 0 154 0
2020-05-05 11:56:19 GMT 55.978809 37.414375 0 154 0
2020-05-05 11:56:13 GMT 55.978809 37.414391 0 154 0
2020-05-05 11:56:02 GMT 55.978809 37.414398 0 154 0
2020-05-05 11:55:51 GMT 55.978821 37.414417 0 154 0
2020-05-05 11:55:29 GMT 55.978821 37.414398 0 154 0
2020-05-05 11:55:08 GMT 55.978821 37.414375 0 154 0
2020-05-05 11:54:58 GMT 55.978821 37.414371 0 154 0
2020-05-05 11:54:49 GMT 55.978821 37.414391 0 154 0
2020-05-05 11:54:38 GMT 55.978832 37.414391 0 154 0
2020-05-05 11:54:28 GMT 55.978821 37.414391 0 154 0
2020-05-05 11:54:09 GMT 55.978821 37.414375 0 154 0
2020-05-05 11:53:58 GMT 55.978809 37.414371 0 154 0
2020-05-05 11:53:48 GMT 55.978798 37.414375 0 154 0
2020-05-05 11:53:38 GMT 55.978786 37.414356 0 154 0
2020-05-05 11:53:29 GMT 55.978775 37.414356 0 154 0
2020-05-05 11:53:03 GMT 55.978752 37.414349 0 154 0
2020-05-05 11:52:48 GMT 55.978752 37.414337 0 154 0
2020-05-05 11:52:36 GMT 55.978741 37.414349 0 154 1
2020-05-05 11:52:27 GMT 55.978695 37.414371 0 157 2
2020-05-05 11:52:11 GMT 55.978611 37.414497 0 129 3
2020-05-05 11:52:02 GMT 55.978569 37.414646 0 112 3
2020-05-05 11:51:55 GMT 55.978554 37.414757 0 104 3
2020-05-05 11:51:43 GMT 55.978546 37.414982 0 84 3
2020-05-05 11:51:35 GMT 55.978580 37.415108 0 70 3
2020-05-05 11:51:26 GMT 55.978622 37.415272 0 61 3
2020-05-05 11:51:15 GMT 55.978661 37.415482 0 64 3
2020-05-05 11:51:04 GMT 55.978695 37.415688 0 64 3
2020-05-05 11:50:53 GMT 55.978741 37.415894 0 64 3
2020-05-05 11:50:40 GMT 55.978798 37.416168 0 64 3
2020-05-05 11:50:34 GMT 55.978832 37.416248 0 61 2
2020-05-05 11:50:23 GMT 55.978878 37.416435 0 67 3
2020-05-05 11:50:13 GMT 55.978928 37.416599 0 64 2
2020-05-05 11:50:04 GMT 55.978992 37.416729 0 64 0

Making use of Plane Finder data

You are free to use the raw flight data, aircraft information and images provided in this report for your own purposes provided the data is correctly attributed to Plane Finder. We ask that you please credit Plane Finder and link to planefinder.net in close proximity to the content.

Optionally one of the following logos (no smaller then 150x24px) can be used and must link to planefinder.net

Embedding the Plane Finder map

You are welcome to embed the Plane Finder playback map on your website to offer visitors a more interactive experience. We suggest using the following HTML code:

<iframe src="//planefinder.net/data/report/SU1232-RA-89114-7700-squawk-2020-05-05/map" width="800" height="600" seamless="seamless"></iframe>

Where our data comes from

Plane Finder has a global network of data feeds and antenna radars that receive data broadcast directly from aircraft. The primary technologies used are ADS-B and MLAT. We also show feeds from the FAA and a FLARM glider feed.

Click here to find out more about the Plane Finder network.

How we collect our data